• Join FlightAware (Why Join?)
  • Login
  • US Flag 
03:51PM EST


 

Airport Tracker/Info


-or-


 

Live Flight TrackerFlight Track Log ✈ TAM3162 ✈ 28-May-2012 ✈ SBPA / POA - SBSP / CGH

Flight Track Log - Related Links

Times and Time Zones

All times are in EDT time to prevent confusion due to time zone crossing. See the TAM3162 flight status page for this flight to view local times or setup timezone preferences in your user account.

Time Position Orientation Groundspeed Altitude Reporting Facility
EDT Latitude Longitude Course Direction KTS MPH feet Rate Location/Type
07:27PM -28.7659 -50.2505 33° Northeast  Level Estimated
07:28PM -28.6956 -50.1986 33° Northeast  Level Estimated
07:29PM -28.6253 -50.1468 33° Northeast  Level Estimated
07:30PM -28.5550 -50.0951 33° Northeast  Level Estimated
07:31PM -28.4847 -50.0434 33° Northeast  Level Estimated
07:32PM -28.4144 -49.9918 33° Northeast  Level Estimated
07:33PM -28.3440 -49.9403 33° Northeast  Level Estimated
07:34PM -28.2736 -49.8889 33° Northeast  Level Estimated
07:35PM -28.2032 -49.8375 33° Northeast  Level Estimated
07:36PM -28.1328 -49.7862 33° Northeast  Level Estimated
07:37PM -28.0624 -49.7349 33° Northeast  Level Estimated
07:38PM -27.9919 -49.6837 33° Northeast  Level Estimated
07:39PM -27.9215 -49.6326 33° Northeast  Level Estimated
07:40PM -27.8510 -49.5816 33° Northeast  Level Estimated
07:41PM -27.7805 -49.5306 33° Northeast  Level Estimated
07:42PM -27.7099 -49.4797 33° Northeast  Level Estimated
07:43PM -27.6394 -49.4288 33° Northeast  Level Estimated
07:44PM -27.5688 -49.3781 33° Northeast  Level Estimated
07:45PM -27.4982 -49.3273 32° Northeast  Level Estimated
07:46PM -27.4277 -49.2767 32° Northeast  Level Estimated
07:47PM -27.3570 -49.2261 32° Northeast  Level Estimated
07:48PM -27.2864 -49.1756 32° Northeast  Level Estimated
07:49PM -27.2157 -49.1251 32° Northeast  Level Estimated
07:50PM -27.1451 -49.0747 32° Northeast  Level Estimated
07:51PM -27.0744 -49.0244 32° Northeast  Level Estimated
07:52PM -27.0037 -48.9741 32° Northeast  Level Estimated
07:53PM -26.9329 -48.9239 32° Northeast  Level Estimated
07:54PM -26.8622 -48.8738 32° Northeast  Level Estimated
07:55PM -26.7914 -48.8237 32° Northeast  Level Estimated
07:56PM -26.7206 -48.7737 32° Northeast  Level Estimated
07:57PM -26.6498 -48.7237 32° Northeast  Level Estimated
07:58PM -26.5790 -48.6738 32° Northeast  Level Estimated
07:59PM -26.5082 -48.6240 32° Northeast  Level Estimated
08:00PM -26.4373 -48.5742 32° Northeast  Level Estimated
08:01PM -26.3665 -48.5245 32° Northeast  Level Estimated
08:02PM -26.2956 -48.4748 32° Northeast  Level Estimated
08:03PM -26.2247 -48.4253 32° Northeast  Level Estimated
08:04PM -26.1538 -48.3757 32° Northeast  Level Estimated
08:05PM -26.0828 -48.3263 32° Northeast  Level Estimated
08:06PM -26.0119 -48.2769 32° Northeast  Level Estimated
08:07PM -25.9409 -48.2275 32° Northeast  Level Estimated
08:08PM -25.8699 -48.1782 32° Northeast  Level Estimated
08:09PM -25.7989 -48.1290 32° Northeast  Level Estimated
08:10PM -25.7279 -48.0798 32° Northeast  Level Estimated
08:11PM -25.6569 -48.0307 32° Northeast  Level Estimated
08:12PM -25.5858 -47.9817 32° Northeast  Level Estimated
08:13PM -25.5147 -47.9327 32° Northeast  Level Estimated
08:14PM -25.4436 -47.8837 32° Northeast  Level Estimated
08:15PM -25.3725 -47.8348 32° Northeast  Level Estimated
08:16PM -25.3014 -47.7860 32° Northeast  Level Estimated
08:17PM -25.2303 -47.7373 32° Northeast  Level Estimated
08:18PM -25.1591 -47.6885 32° Northeast  Level Estimated
08:19PM -25.0880 -47.6399 32° Northeast  Level Estimated
08:20PM -25.0168 -47.5913 32° Northeast  Level Estimated
08:21PM -24.9456 -47.5428 32° Northeast  Level Estimated
08:22PM -24.8744 -47.4943 32° Northeast  Level Estimated
08:23PM -24.8032 -47.4459 32° Northeast  Level Estimated
08:24PM -24.7319 -47.3975 32° Northeast  Level Estimated
08:25PM -24.6607 -47.3492 32° Northeast  Level Estimated
08:26PM -24.5894 -47.3009 32° Northeast  Level Estimated
08:27PM -24.5181 -47.2527 32° Northeast  Level Estimated
08:28PM -24.4468 -47.2046 32° Northeast  Level Estimated
08:29PM -24.3755 -47.1565 32° Northeast  Level Estimated
08:30PM -24.3041 -47.1084 32° Northeast  Level Estimated
08:31PM -24.2328 -47.0604 32° Northeast  Level Estimated
08:32PM -24.1614 -47.0125 31° Northeast  Level Estimated
08:33PM -24.0900 -46.9646 31° Northeast  Level Estimated
08:34PM -24.0186 -46.9168 31° Northeast  Level Estimated
08:35PM -23.9472 -46.8690 31° Northeast  Level Estimated
08:36PM -23.8758 -46.8213 31° Northeast  Level Estimated
08:37PM -23.8043 -46.7736 31° Northeast  Level Estimated
08:38PM -23.7329 -46.7260 31° Northeast  Level Estimated
08:39PM -23.6614 -46.6785 31° Northeast  Level Estimated
08:40PM -23.5899 -46.6310 211° Southwest  Level Estimated
08:41PM -23.6614 -46.6785 31° Northeast  Level Estimated
08:42PM -23.5899 -46.6310 211° Southwest  Level Estimated
08:43PM -23.6614 -46.6785 31° Northeast  Level Estimated
08:44PM -23.5899 -46.6310 211° Southwest  Level Estimated
08:45PM -23.6614 -46.6785 31° Northeast  Level Estimated
08:46PM -23.5899 -46.6310 211° Southwest  Level Estimated
08:47PM -23.6614 -46.6785 31° Northeast  Level Estimated
08:48PM -23.5899 -46.6310 211° Southwest  Level Estimated
08:49PM -23.6614 -46.6785 31° Northeast  Level Estimated
08:50PM -23.5899 -46.6310 211° Southwest  Level Estimated
08:51PM -23.6614 -46.6785 211° Southwest  Level Estimated